M4 — V7YF6 — position and weather

sailwx.info

Track history (hours):
 
Tides and Currents Weather Stations Pressure Air Temp Water Temp Dewpoint Dewpoint Depression Visibility Wind Speed Wind Dir Waves Ship Positions

M4

Last reported at 2015-Jul-07 08:33 UTC. Time now 2015-Jul-07 08:55 UTC.
Position N 41°00' W 072°17'.

Length 42 m; draft 2.4 m.

Type: Pleasure craft. MMSI: 538070835.

Date/timePositionNaut miles runAvg speedWind from/ knotsBaromVisibWave heightAir tempDewpointWater temp
2015-Jul-07 08:33N 41°00' W 072°17'0 0.0
2015-Jul-07 07:33N 41°00' W 072°17'0 0.0
2015-Jul-07 06:33N 41°00' W 072°17'0 0.0
2015-Jul-07 05:33N 41°00' W 072°17'0 0.0
2015-Jul-07 04:33N 41°00' W 072°17'0 0.0
2015-Jul-07 03:33N 41°00' W 072°17'0 0.0
2015-Jul-07 02:33N 41°00' W 072°17'0 0.0
2015-Jul-07 01:33N 41°00' W 072°17'0 0.0
2015-Jul-07 00:33N 41°00' W 072°17'0 0.0
2015-Jul-06 23:33N 41°00' W 072°17'0 0.0
2015-Jul-06 22:33N 41°00' W 072°17'0 0.0
2015-Jul-06 21:33N 41°00' W 072°17'0 0.0
2015-Jul-06 20:33N 41°00' W 072°17'0 0.0
2015-Jul-06 19:33N 41°00' W 072°17'0 0.0
2015-Jul-06 18:33N 41°00' W 072°17'0 0.0
2015-Jul-06 17:33N 41°00' W 072°17'0 0.0
2015-Jul-06 16:33N 41°00' W 072°17'0 0.0
2015-Jul-06 15:33N 41°00' W 072°17'0 0.0
2015-Jul-06 14:33N 41°00' W 072°17'0 0.0
2015-Jul-06 13:33N 41°00' W 072°17'  
2015-Jul-04 06:33N 41°00' W 072°17'0 0.0
2015-Jul-04 05:33N 41°00' W 072°17'0 0.0
2015-Jul-04 04:33N 41°00' W 072°17'0 0.0
2015-Jul-04 03:33N 41°00' W 072°17'0 0.0
2015-Jul-04 02:33N 41°00' W 072°17'0 0.0
2015-Jul-04 01:30N 41°00' W 072°17'0 0.0
2015-Jul-04 00:33N 41°00' W 072°17'0 0.0
2015-Jul-03 23:33N 41°00' W 072°17'0 0.0
2015-Jul-03 22:33N 41°00' W 072°17'0 0.0
2015-Jul-03 21:33N 41°00' W 072°17'0 0.0
2015-Jul-03 20:33N 41°00' W 072°17'0 0.0
2015-Jul-03 19:33N 41°00' W 072°17'0 0.0
2015-Jul-03 18:33N 41°00' W 072°17'4 4.4
2015-Jul-03 17:33N 41°04' W 072°14'9 9.1
2015-Jul-03 16:33N 41°08' W 072°03'1010.2
2015-Jul-03 15:33N 41°04' W 071°51'1111.0
2015-Jul-03 14:33N 40°53' W 071°55'1110.7
2015-Jul-03 13:33N 40°43' W 071°60'1110.8
2015-Jul-03 12:33N 40°33' W 072°04'1110.6
2015-Jul-03 11:33N 40°23' W 072°09'1010.4
2015-Jul-03 10:33N 40°13' W 072°13'1010.3
2015-Jul-03 09:33N 40°03' W 072°17'1010.2
2015-Jul-03 08:33N 39°53' W 072°21'1010.3
2015-Jul-03 07:33N 39°44' W 072°25'1110.0
2015-Jul-03 06:27N 39°33' W 072°27'  
2015-Jun-30 05:34N 27°01' W 079°58'15 0.4
2015-Jun-28 13:05N 26°46' W 080°02'6 9.5
2015-Jun-28 12:30N 26°44' W 079°56'1313.9
2015-Jun-28 11:33N 26°31' W 079°58'1413.7
2015-Jun-28 10:33N 26°18' W 080°01'1312.7
2015-Jun-28 09:33N 26°06' W 080°06'1 1.3
2015-Jun-28 08:33N 26°07' W 080°06'0 0.0
2015-Jun-28 07:33N 26°07' W 080°06'0 0.0
2015-Jun-28 06:30N 26°07' W 080°06'0 0.0
2015-Jun-28 05:33N 26°07' W 080°06'0 0.0
2015-Jun-28 04:33N 26°07' W 080°06'0 0.0
2015-Jun-28 03:24N 26°07' W 080°06'0 0.0
2015-Jun-28 02:33N 26°07' W 080°06'0 0.0
2015-Jun-28 01:24N 26°07' W 080°06'0 0.0
2015-Jun-28 00:24N 26°07' W 080°06'0 0.0
2015-Jun-27 23:27N 26°07' W 080°06'0 0.0
2015-Jun-27 22:24N 26°07' W 080°06'0 0.0
2015-Jun-27 21:30N 26°07' W 080°06'0 0.0
2015-Jun-27 20:30N 26°07' W 080°06'0 0.0
2015-Jun-27 19:30N 26°07' W 080°06'0 0.0
2015-Jun-27 18:33N 26°07' W 080°06'0 0.0
2015-Jun-27 17:33N 26°07' W 080°06'0 0.0
2015-Jun-27 16:33N 26°07' W 080°06'0 0.0
2015-Jun-27 15:33N 26°07' W 080°06'0 0.0
2015-Jun-27 14:33N 26°07' W 080°06'0 0.0
2015-Jun-27 13:33N 26°07' W 080°06'0 0.0
2015-Jun-27 12:33N 26°07' W 080°06'0 0.0
2015-Jun-27 11:24N 26°07' W 080°06'0 0.0
2015-Jun-27 10:27N 26°07' W 080°06'0 0.0
2015-Jun-27 09:27N 26°07' W 080°06'  
Track history (hours):
 
Tides and Currents Weather Stations Pressure Air Temp Water Temp Dewpoint Dewpoint Depression Visibility Wind Speed Wind Dir Waves Ship Positions

M4

Last reported at 2015-Jul-07 08:33 UTC. Time now 2015-Jul-07 08:55 UTC.
Position N 41°00' W 072°17'.

Length 42 m; draft 2.4 m.

Type: Pleasure craft. MMSI: 538070835.

Date/timePositionNaut miles runAvg speedWind from/ knotsBaromVisibWave heightAir tempDewpointWater temp
2015-Jul-07 08:33N 41°00' W 072°17'0 0.0
2015-Jul-07 07:33N 41°00' W 072°17'0 0.0
2015-Jul-07 06:33N 41°00' W 072°17'0 0.0
2015-Jul-07 05:33N 41°00' W 072°17'0 0.0
2015-Jul-07 04:33N 41°00' W 072°17'0 0.0
2015-Jul-07 03:33N 41°00' W 072°17'0 0.0
2015-Jul-07 02:33N 41°00' W 072°17'0 0.0
2015-Jul-07 01:33N 41°00' W 072°17'0 0.0
2015-Jul-07 00:33N 41°00' W 072°17'0 0.0
2015-Jul-06 23:33N 41°00' W 072°17'0 0.0
2015-Jul-06 22:33N 41°00' W 072°17'0 0.0
2015-Jul-06 21:33N 41°00' W 072°17'0 0.0
2015-Jul-06 20:33N 41°00' W 072°17'0 0.0
2015-Jul-06 19:33N 41°00' W 072°17'0 0.0
2015-Jul-06 18:33N 41°00' W 072°17'0 0.0
2015-Jul-06 17:33N 41°00' W 072°17'0 0.0
2015-Jul-06 16:33N 41°00' W 072°17'0 0.0
2015-Jul-06 15:33N 41°00' W 072°17'0 0.0
2015-Jul-06 14:33N 41°00' W 072°17'0 0.0
2015-Jul-06 13:33N 41°00' W 072°17'  
2015-Jul-04 06:33N 41°00' W 072°17'0 0.0
2015-Jul-04 05:33N 41°00' W 072°17'0 0.0
2015-Jul-04 04:33N 41°00' W 072°17'0 0.0
2015-Jul-04 03:33N 41°00' W 072°17'0 0.0
2015-Jul-04 02:33N 41°00' W 072°17'0 0.0
2015-Jul-04 01:30N 41°00' W 072°17'0 0.0
2015-Jul-04 00:33N 41°00' W 072°17'0 0.0
2015-Jul-03 23:33N 41°00' W 072°17'0 0.0
2015-Jul-03 22:33N 41°00' W 072°17'0 0.0
2015-Jul-03 21:33N 41°00' W 072°17'0 0.0
2015-Jul-03 20:33N 41°00' W 072°17'0 0.0
2015-Jul-03 19:33N 41°00' W 072°17'0 0.0
2015-Jul-03 18:33N 41°00' W 072°17'4 4.4
2015-Jul-03 17:33N 41°04' W 072°14'9 9.1
2015-Jul-03 16:33N 41°08' W 072°03'1010.2
2015-Jul-03 15:33N 41°04' W 071°51'1111.0
2015-Jul-03 14:33N 40°53' W 071°55'1110.7
2015-Jul-03 13:33N 40°43' W 071°60'1110.8
2015-Jul-03 12:33N 40°33' W 072°04'1110.6
2015-Jul-03 11:33N 40°23' W 072°09'1010.4
2015-Jul-03 10:33N 40°13' W 072°13'1010.3
2015-Jul-03 09:33N 40°03' W 072°17'1010.2
2015-Jul-03 08:33N 39°53' W 072°21'1010.3
2015-Jul-03 07:33N 39°44' W 072°25'1110.0
2015-Jul-03 06:27N 39°33' W 072°27'  
2015-Jun-30 05:34N 27°01' W 079°58'15 0.4
2015-Jun-28 13:05N 26°46' W 080°02'6 9.5
2015-Jun-28 12:30N 26°44' W 079°56'1313.9
2015-Jun-28 11:33N 26°31' W 079°58'1413.7
2015-Jun-28 10:33N 26°18' W 080°01'1312.7
2015-Jun-28 09:33N 26°06' W 080°06'1 1.3
2015-Jun-28 08:33N 26°07' W 080°06'0 0.0
2015-Jun-28 07:33N 26°07' W 080°06'0 0.0
2015-Jun-28 06:30N 26°07' W 080°06'0 0.0
2015-Jun-28 05:33N 26°07' W 080°06'0 0.0
2015-Jun-28 04:33N 26°07' W 080°06'0 0.0
2015-Jun-28 03:24N 26°07' W 080°06'0 0.0
2015-Jun-28 02:33N 26°07' W 080°06'0 0.0
2015-Jun-28 01:24N 26°07' W 080°06'0 0.0
2015-Jun-28 00:24N 26°07' W 080°06'0 0.0
2015-Jun-27 23:27N 26°07' W 080°06'0 0.0
2015-Jun-27 22:24N 26°07' W 080°06'0 0.0
2015-Jun-27 21:30N 26°07' W 080°06'0 0.0
2015-Jun-27 20:30N 26°07' W 080°06'0 0.0
2015-Jun-27 19:30N 26°07' W 080°06'0 0.0
2015-Jun-27 18:33N 26°07' W 080°06'0 0.0
2015-Jun-27 17:33N 26°07' W 080°06'0 0.0
2015-Jun-27 16:33N 26°07' W 080°06'0 0.0
2015-Jun-27 15:33N 26°07' W 080°06'0 0.0
2015-Jun-27 14:33N 26°07' W 080°06'0 0.0
2015-Jun-27 13:33N 26°07' W 080°06'0 0.0
2015-Jun-27 12:33N 26°07' W 080°06'0 0.0
2015-Jun-27 11:24N 26°07' W 080°06'0 0.0
2015-Jun-27 10:27N 26°07' W 080°06'0 0.0
2015-Jun-27 09:27N 26°07' W 080°06'  

Dump ship's entire track history